Flight Track Log - Related Links

Times and Time Zones

All times are in EDT time to prevent confusion due to time zone crossing. See the WWI24 flight status page for this flight to view local times or setup timezone preferences in your user account.

Time Position Orientation Groundspeed Altitude Reporting Facility
EDT Latitude Longitude Course Direction KTS MPH feet Rate Location/Type
Sun 06:31:30 PM 33.6167 -111.9333 287° West 154 177 2,800  Level Phoenix TRACON
Sun 06:32:12 PM 33.6250 -111.9658 287° West 206 237 3,600 1,846 Climbing Albuquerque Center
Sun 06:33:14 PM 33.6547 -112.0400 296° West 241 277 6,000 2,613 Climbing Albuquerque Center
Sun 06:34:16 PM 33.6947 -112.1281 299° West 295 339 9,000 2,049 Climbing Albuquerque Center
Sun 06:35:17 PM 33.7775 -112.1792 333° Northwest 326 375 10,200 1,463 Climbing Albuquerque Center
Sun 06:36:19 PM 33.8653 -112.2336 333° Northwest 351 404 12,000 2,081 Climbing Albuquerque Center
Sun 06:37:21 PM 33.9572 -112.2906 333° Northwest 367 422 14,500 2,390 Climbing Albuquerque Center
Sun 06:38:22 PM 34.0533 -112.3550 331° Northwest 389 448 16,900 2,732 Climbing Albuquerque Center
Sun 06:39:24 PM 34.1539 -112.4606 319° Northwest 399 459 20,100 2,537 Climbing Albuquerque Center
Sun 06:40:25 PM 34.2317 -112.5619 313° West 409 471 22,100 2,390 Climbing Albuquerque Center
Sun 06:41:27 PM 34.2892 -112.6769 301° West 401 461 25,000 2,081 Climbing Albuquerque Center
Sun 06:42:29 PM 34.3439 -112.7953 299° West 399 459 26,400 1,463 Climbing Albuquerque Center
Sun 06:43:30 PM 34.4031 -112.9153 301° West 410 472 28,000 522 Climbing Albuquerque Center
Sun 06:45:33 PM 34.5803 -113.1186 317° Northwest 438 504 28,000 32 Level Albuquerque Center
Sun 06:46:35 PM 34.6769 -113.2328 316° Northwest 476 548 28,100  Climbing Albuquerque Center
Sun 06:47:36 PM 34.7708 -113.3456 315° West 476 548 28,000 -49 Descending Albuquerque Center
Sun 06:48:38 PM 34.8808 -113.4750 316° Northwest 463 533 28,000  Level Albuquerque Center
Sun 06:49:42 PM 34.9725 -113.5878 315° West 465 535 28,000 -381 Level Los Angeles Center
Sun 06:50:44 PM 35.0664 -113.6997 316° Northwest 468 539 27,200 -1,872 Descending Los Angeles Center
Sun 06:51:47 PM 35.1600 -113.8131 315° West 471 542 24,100 -3,504 Descending Los Angeles Center
Sun 06:52:49 PM 35.2667 -113.9389 316° Northwest 454 522 19,900 -3,823 Descending Los Angeles Center
Sun 06:53:51 PM 35.3636 -114.0308 322° Northwest 444 511 16,200 -2,758 Descending Los Angeles Center
Sun 06:54:53 PM 35.4539 -114.1144 323° Northwest 402 463 14,200 -919 Descending Los Angeles Center
Sun 06:55:55 PM 35.5375 -114.1933 322° Northwest 382 440 14,300 53 Climbing Los Angeles Center
Sun 06:56:46 PM 35.6214 -114.2686 324° Northwest 391 450 14,300 -726 Level Los Angeles Center
Sun 06:57:59 PM 35.6975 -114.3422 322° Northwest 350 403 12,800 -1,066 Descending Los Angeles Center
Sun 06:59:18 PM 35.8233 -114.4150 335° Northwest 334 384 11,600 -1,097 Descending Los Angeles Center
Sun 07:01:05 PM 35.9672 -114.4617 345° North 324 373 9,400 -1,261 Descending Los Angeles Center
Sun 07:02:14 PM 36.0719 -114.4825 351° North 307 353 7,900 -1,113 Descending Los Angeles Center
Sun 07:03:09 PM 36.1375 -114.4906 354° North 311 358 7,100 -462 Descending Los Angeles Center
Sun 07:04:11 PM 36.1933 -114.5858 306° West 300 345 7,000 -48 Descending Los Angeles Center
Sun 07:05:13 PM 36.1892 -114.6803 267° West 287 330 7,000  Level Los Angeles Center
Sun 07:06:15 PM 36.1692 -114.7731 255° West 281 323 7,000  Level Los Angeles Center
Sun 07:06:30 PM 36.1664 -114.8000 263° West 273 314 7,000  Level Los Angeles Center
Sun 07:07:17 PM 36.1497 -114.8647 252° West 277 319 7,000 -466 Level Los Angeles Center
Sun 07:08:13 PM 36.1319 -114.9581 257° West 267 307 6,200 -615 Descending Los Angeles Center
Sun 07:09:14 PM 36.1367 -115.0392 274° West 214 246 5,800 -1,078 Descending Los Angeles Center
Sun 07:10:21 PM 36.1364 -115.1083 270° West 173 199 3,900 -1,574 Descending Los Angeles Center
Sun 07:11:16 PM 36.1208 -115.1456 243° Southwest 159 183 2,600 -1,418 Descending Los Angeles Center
Sun 07:13:00 PM 36.0801 -115.1523 251° West  Level Estimated
Sun 07:20:00 PM 36.0801 -115.1523 251° West  Level Estimated

Login

Don't have an account? Register now (free) for customized features, flight alerts, and more!